createdAt,value
2019-05-29T00:00:14.789Z,1013.68
2019-05-29T00:01:19.858Z,1013.75
2019-05-29T00:02:15.766Z,1013.74
2019-05-29T00:03:14.756Z,1013.66
2019-05-29T00:04:14.746Z,1013.72
2019-05-29T00:05:14.734Z,1013.78
2019-05-29T00:06:14.724Z,1013.76
2019-05-29T00:07:14.729Z,1013.82
2019-05-29T00:08:14.800Z,1013.78
2019-05-29T00:09:14.694Z,1013.80
2019-05-29T00:10:14.681Z,1013.88
2019-05-29T00:11:14.668Z,1013.83
2019-05-29T00:12:19.318Z,1013.86
2019-05-29T00:13:15.659Z,1013.76
2019-05-29T00:14:22.603Z,1013.84
2019-05-29T00:15:15.622Z,1013.79
2019-05-29T00:16:14.613Z,1013.83
2019-05-29T00:17:14.738Z,1013.83
2019-05-29T00:18:14.679Z,1013.80
2019-05-29T00:19:14.667Z,1013.84
2019-05-29T00:20:14.709Z,1013.79
2019-05-29T00:21:14.757Z,1013.85
2019-05-29T00:22:14.590Z,1013.86
2019-05-29T00:23:14.716Z,1013.81
2019-05-29T00:24:14.526Z,1013.88
2019-05-29T00:25:14.807Z,1013.87
2019-05-29T00:26:14.644Z,1013.89
2019-05-29T00:27:15.607Z,1013.86
2019-05-29T00:28:14.906Z,1013.91
2019-05-29T00:29:14.472Z,1013.93
2019-05-29T00:30:15.017Z,1013.90
2019-05-29T00:31:14.462Z,1013.94
2019-05-29T00:32:15.166Z,1013.95
2019-05-29T00:33:14.580Z,1013.92
2019-05-29T00:34:15.253Z,1013.92
2019-05-29T00:35:14.455Z,1013.97
2019-05-29T00:36:14.488Z,1013.97
2019-05-29T00:37:14.648Z,1013.99
2019-05-29T00:38:14.750Z,1014.03
2019-05-29T00:39:14.807Z,1014.02
2019-05-29T00:40:15.084Z,1014.05
2019-05-29T00:41:15.083Z,1014.07
2019-05-29T00:42:14.751Z,1014.11
2019-05-29T00:43:15.503Z,1014.14
2019-05-29T00:44:15.361Z,1014.15
2019-05-29T00:45:15.529Z,1014.18
2019-05-29T00:46:15.493Z,1014.17
2019-05-29T00:47:14.281Z,1014.18
2019-05-29T00:48:14.270Z,1014.22
2019-05-29T00:49:14.273Z,1014.23
2019-05-29T00:50:14.249Z,1014.23
2019-05-29T00:51:15.092Z,1014.16
2019-05-29T00:52:14.368Z,1014.21
2019-05-29T00:53:14.334Z,1014.24
2019-05-29T00:54:14.481Z,1014.20
2019-05-29T00:55:14.679Z,1014.24
2019-05-29T00:56:14.668Z,1014.28
2019-05-29T00:57:15.334Z,1014.24
2019-05-29T00:58:14.913Z,1014.24
2019-05-29T00:59:15.105Z,1014.24
2019-05-29T01:00:15.210Z,1014.25
2019-05-29T01:01:15.406Z,1014.25
2019-05-29T01:02:14.123Z,1014.29
2019-05-29T01:03:14.116Z,1014.28
2019-05-29T01:04:14.102Z,1014.27
2019-05-29T01:05:14.091Z,1014.27
2019-05-29T01:06:14.080Z,1014.29
2019-05-29T01:07:14.218Z,1014.29
2019-05-29T01:08:14.517Z,1014.28
2019-05-29T01:09:14.425Z,1014.28
2019-05-29T01:10:14.681Z,1014.27
2019-05-29T01:11:14.706Z,1014.29
2019-05-29T01:12:14.795Z,1014.34
2019-05-29T01:13:15.083Z,1014.36
2019-05-29T01:14:15.115Z,1014.30
2019-05-29T01:15:13.984Z,1014.32
2019-05-29T01:16:13.975Z,1014.37
2019-05-29T01:17:13.963Z,1014.34
2019-05-29T01:18:13.952Z,1014.37
2019-05-29T01:19:13.958Z,1014.36
2019-05-29T01:20:14.064Z,1014.36
2019-05-29T01:21:13.919Z,1014.40
2019-05-29T01:22:14.140Z,1014.34
2019-05-29T01:23:14.185Z,1014.35
2019-05-29T01:24:14.205Z,1014.42
2019-05-29T01:25:14.463Z,1014.41
2019-05-29T01:26:14.520Z,1014.41
2019-05-29T01:27:15.080Z,1014.42
2019-05-29T01:28:14.703Z,1014.42
2019-05-29T01:29:14.932Z,1014.47
2019-05-29T01:30:15.025Z,1014.47
2019-05-29T01:31:13.821Z,1014.47
2019-05-29T01:32:13.834Z,1014.49
2019-05-29T01:33:17.525Z,1014.50
2019-05-29T01:34:15.666Z,1014.51
2019-05-29T01:35:13.824Z,1014.59
2019-05-29T01:36:13.893Z,1014.56
2019-05-29T01:37:13.988Z,1014.46
2019-05-29T01:38:13.736Z,1014.56
2019-05-29T01:39:13.724Z,1014.54
2019-05-29T01:40:20.106Z,1014.55
2019-05-29T01:41:15.104Z,1014.59
2019-05-29T01:42:13.692Z,1014.58
2019-05-29T01:43:13.692Z,1014.58
2019-05-29T01:44:13.675Z,1014.57
2019-05-29T01:45:13.659Z,1014.59
2019-05-29T01:46:13.648Z,1014.60
2019-05-29T01:47:13.636Z,1014.63
2019-05-29T01:48:13.627Z,1014.60
2019-05-29T01:49:13.626Z,1014.60
2019-05-29T01:50:13.604Z,1014.57
2019-05-29T01:51:13.595Z,1014.59
2019-05-29T01:52:13.585Z,1014.63
2019-05-29T01:53:13.571Z,1014.68
2019-05-29T01:54:13.560Z,1014.69
2019-05-29T01:55:13.559Z,1014.69
2019-05-29T01:56:13.541Z,1014.66
2019-05-29T01:57:13.527Z,1014.68
2019-05-29T01:58:13.554Z,1014.67
2019-05-29T01:59:13.508Z,1014.68
2019-05-29T02:00:13.496Z,1014.70
2019-05-29T02:01:13.493Z,1014.72
2019-05-29T02:02:13.481Z,1014.69
2019-05-29T02:03:13.461Z,1014.71
2019-05-29T02:04:13.455Z,1014.77
2019-05-29T02:05:13.446Z,1014.78
2019-05-29T02:06:13.430Z,1014.75
2019-05-29T02:07:13.431Z,1014.86
2019-05-29T02:08:13.413Z,1014.80
2019-05-29T02:09:13.409Z,1014.84
2019-05-29T02:10:13.392Z,1014.90
2019-05-29T02:11:13.375Z,1014.83
2019-05-29T02:12:13.367Z,1014.86
2019-05-29T02:13:13.364Z,1014.91
2019-05-29T02:14:13.352Z,1014.93
2019-05-29T02:15:23.916Z,1014.89
2019-05-29T02:16:14.320Z,1014.86
2019-05-29T02:17:13.310Z,1014.85
2019-05-29T02:18:13.300Z,1014.86
2019-05-29T02:19:13.305Z,1014.88
2019-05-29T02:20:13.287Z,1014.89
2019-05-29T02:21:13.266Z,1014.86
2019-05-29T02:22:13.266Z,1014.94
2019-05-29T02:23:13.245Z,1014.89
2019-05-29T02:24:13.234Z,1014.90
2019-05-29T02:25:15.960Z,1014.92
2019-05-29T02:26:13.219Z,1014.96
2019-05-29T02:27:13.203Z,1015.01
2019-05-29T02:28:13.189Z,1015.02
2019-05-29T02:29:13.179Z,1015.07
2019-05-29T02:30:13.169Z,1015.10
2019-05-29T02:31:13.168Z,1015.17
2019-05-29T02:32:13.151Z,1015.13
2019-05-29T02:33:13.139Z,1015.19
2019-05-29T02:34:13.125Z,1015.14
2019-05-29T02:35:13.114Z,1015.16
2019-05-29T02:36:13.113Z,1015.16
2019-05-29T02:37:13.101Z,1015.15
2019-05-29T02:38:13.085Z,1015.11
2019-05-29T02:39:13.074Z,1015.12
2019-05-29T02:40:13.059Z,1015.08
2019-05-29T02:41:13.049Z,1015.11
2019-05-29T02:42:13.038Z,1015.11
2019-05-29T02:43:13.041Z,1015.18
2019-05-29T02:44:13.019Z,1015.20
2019-05-29T02:45:13.007Z,1015.20
2019-05-29T02:46:12.996Z,1015.23
2019-05-29T02:47:12.984Z,1015.29
2019-05-29T02:48:12.973Z,1015.19
2019-05-29T02:49:12.973Z,1015.24
2019-05-29T02:50:12.957Z,1015.21
2019-05-29T02:51:12.941Z,1015.25
2019-05-29T02:52:12.934Z,1015.26
2019-05-29T02:53:12.922Z,1015.25
2019-05-29T02:54:12.911Z,1015.28
2019-05-29T02:55:12.912Z,1015.31
2019-05-29T02:56:12.892Z,1015.29
2019-05-29T02:57:12.880Z,1015.26
2019-05-29T02:58:12.869Z,1015.29
2019-05-29T02:59:12.858Z,1015.26
2019-05-29T03:00:12.850Z,1015.28
2019-05-29T03:01:12.847Z,1015.27
2019-05-29T03:02:12.828Z,1015.28
2019-05-29T03:03:12.816Z,1015.29
2019-05-29T03:04:12.806Z,1015.32
2019-05-29T03:05:12.795Z,1015.42
2019-05-29T03:06:12.784Z,1015.41
2019-05-29T03:07:12.786Z,1015.42
2019-05-29T03:08:12.763Z,1015.45
2019-05-29T03:09:12.755Z,1015.49
2019-05-29T03:10:12.745Z,1015.49
2019-05-29T03:11:12.733Z,1015.48
2019-05-29T03:12:12.726Z,1015.52
2019-05-29T03:13:12.730Z,1015.49
2019-05-29T03:14:12.702Z,1015.51
2019-05-29T03:15:12.690Z,1015.49
2019-05-29T03:16:13.317Z,1015.51
2019-05-29T03:17:12.677Z,1015.51
2019-05-29T03:18:12.657Z,1015.54
2019-05-29T03:19:12.660Z,1015.55
2019-05-29T03:20:12.637Z,1015.57
2019-05-29T03:21:12.629Z,1015.52
2019-05-29T03:22:12.624Z,1015.59
2019-05-29T03:23:12.605Z,1015.58
2019-05-29T03:24:12.597Z,1015.58
2019-05-29T03:25:12.601Z,1015.57
2019-05-29T03:26:12.575Z,1015.56
2019-05-29T03:27:12.564Z,1015.58
2019-05-29T03:28:12.560Z,1015.60
2019-05-29T03:29:12.545Z,1015.60
2019-05-29T03:30:12.537Z,1015.60
2019-05-29T03:31:12.531Z,1015.64
2019-05-29T03:32:14.497Z,1015.67
2019-05-29T03:33:12.501Z,1015.59
2019-05-29T03:34:12.491Z,1015.65
2019-05-29T03:35:12.485Z,1015.71
2019-05-29T03:36:12.470Z,1015.69
2019-05-29T03:37:12.468Z,1015.65
2019-05-29T03:38:12.450Z,1015.68
2019-05-29T03:39:12.439Z,1015.74
2019-05-29T03:40:12.452Z,1015.71
2019-05-29T03:41:12.418Z,1015.74
2019-05-29T03:42:12.406Z,1015.67
2019-05-29T03:43:12.406Z,1015.70
2019-05-29T03:44:12.395Z,1015.72
2019-05-29T03:45:12.377Z,1015.73
2019-05-29T03:46:29.103Z,1015.73
2019-05-29T03:47:13.354Z,1015.76
2019-05-29T03:48:12.350Z,1015.81
2019-05-29T03:49:12.376Z,1015.80
2019-05-29T03:50:15.654Z,1015.82
2019-05-29T03:51:12.322Z,1015.81
2019-05-29T03:52:12.302Z,1015.85
2019-05-29T03:53:12.291Z,1015.81
2019-05-29T03:54:12.279Z,1015.89
2019-05-29T03:55:12.279Z,1015.85
2019-05-29T03:56:12.274Z,1015.82
2019-05-29T03:57:12.248Z,1015.77
2019-05-29T03:58:12.236Z,1015.81
2019-05-29T03:59:12.223Z,1015.81
2019-05-29T04:00:12.213Z,1015.84
2019-05-29T04:01:12.228Z,1015.92
2019-05-29T04:02:12.191Z,1015.91
2019-05-29T04:03:12.181Z,1016.01
2019-05-29T04:04:12.169Z,1015.97
2019-05-29T04:05:12.158Z,1016.04
2019-05-29T04:06:12.148Z,1016.02
2019-05-29T04:07:12.146Z,1016.07
2019-05-29T04:08:12.130Z,1016.06
2019-05-29T04:09:12.116Z,1016.07
2019-05-29T04:10:12.105Z,1016.12
2019-05-29T04:11:12.094Z,1016.12
2019-05-29T04:12:12.083Z,1016.13
2019-05-29T04:13:12.088Z,1016.13
2019-05-29T04:14:12.070Z,1016.19
2019-05-29T04:15:12.061Z,1016.19
2019-05-29T04:16:12.040Z,1016.21
2019-05-29T04:17:12.030Z,1016.21
2019-05-29T04:18:12.024Z,1016.29
2019-05-29T04:19:12.033Z,1016.27
2019-05-29T04:20:11.996Z,1016.33
2019-05-29T04:21:12.089Z,1016.36
2019-05-29T04:22:11.978Z,1016.37
2019-05-29T04:23:11.972Z,1016.37
2019-05-29T04:24:11.954Z,1016.41
2019-05-29T04:25:11.955Z,1016.41
2019-05-29T04:26:11.932Z,1016.39
2019-05-29T04:27:11.920Z,1016.40
2019-05-29T04:28:11.910Z,1016.46
2019-05-29T04:29:11.904Z,1016.47
2019-05-29T04:30:11.888Z,1016.54
2019-05-29T04:31:11.895Z,1016.49
2019-05-29T04:32:11.865Z,1016.53
2019-05-29T04:33:11.862Z,1016.58
2019-05-29T04:34:11.847Z,1016.61
2019-05-29T04:35:11.834Z,1016.60
2019-05-29T04:36:11.824Z,1016.65
2019-05-29T04:37:11.827Z,1016.68
2019-05-29T04:38:11.804Z,1016.68
2019-05-29T04:39:11.789Z,1016.73
2019-05-29T04:40:11.778Z,1016.74
2019-05-29T04:41:11.768Z,1016.78
2019-05-29T04:42:11.762Z,1016.81
2019-05-29T04:43:11.760Z,1016.79
2019-05-29T04:44:11.736Z,1016.85
2019-05-29T04:45:11.724Z,1016.84
2019-05-29T04:46:11.714Z,1016.85
2019-05-29T04:47:12.444Z,1016.87
2019-05-29T04:48:11.692Z,1016.89
2019-05-29T04:49:11.694Z,1016.96
2019-05-29T04:50:11.678Z,1016.95
2019-05-29T04:51:11.675Z,1016.92
2019-05-29T04:52:11.650Z,1016.95
2019-05-29T04:53:11.639Z,1017.00
2019-05-29T04:54:11.752Z,1017.02
2019-05-29T04:55:11.631Z,1017.04
2019-05-29T04:56:11.606Z,1017.06
2019-05-29T04:57:11.595Z,1017.07
2019-05-29T04:58:11.583Z,1017.11
2019-05-29T04:59:11.572Z,1017.12
2019-05-29T05:00:11.561Z,1017.14
2019-05-29T05:01:11.566Z,1017.13
2019-05-29T05:02:11.547Z,1017.18
2019-05-29T05:03:11.529Z,1017.19
2019-05-29T05:04:11.520Z,1017.19
2019-05-29T05:05:11.510Z,1017.22
2019-05-29T05:06:11.521Z,1017.24
2019-05-29T05:07:11.503Z,1017.19
2019-05-29T05:08:11.483Z,1017.27
2019-05-29T05:09:11.517Z,1017.26
2019-05-29T05:10:11.452Z,1017.27
2019-05-29T05:11:11.454Z,1017.31
2019-05-29T05:12:11.430Z,1017.32
2019-05-29T05:13:11.438Z,1017.33
2019-05-29T05:14:11.410Z,1017.37
2019-05-29T05:15:11.402Z,1017.38
2019-05-29T05:16:11.387Z,1017.39
2019-05-29T05:17:25.177Z,1017.41
2019-05-29T05:18:12.378Z,1017.40
2019-05-29T05:19:11.355Z,1017.46
2019-05-29T05:20:11.345Z,1017.45
2019-05-29T05:21:11.333Z,1017.41
2019-05-29T05:22:11.323Z,1017.41
2019-05-29T05:23:11.312Z,1017.40
2019-05-29T05:24:11.312Z,1017.36
2019-05-29T05:25:11.290Z,1017.39
2019-05-29T05:26:11.278Z,1017.42
2019-05-29T05:27:11.269Z,1017.41
2019-05-29T05:28:11.256Z,1017.43
2019-05-29T05:29:11.246Z,1017.46
2019-05-29T05:30:11.245Z,1017.50
2019-05-29T05:31:11.233Z,1017.52
2019-05-29T05:32:11.214Z,1017.50
2019-05-29T05:33:11.203Z,1017.49
2019-05-29T05:34:11.192Z,1017.48
2019-05-29T05:35:14.366Z,1017.50
2019-05-29T05:36:11.181Z,1017.57
2019-05-29T05:37:11.159Z,1017.59
2019-05-29T05:38:11.148Z,1017.61
2019-05-29T05:39:11.137Z,1017.69
2019-05-29T05:40:11.132Z,1017.66
2019-05-29T05:41:11.190Z,1017.66
2019-05-29T05:42:11.117Z,1017.68
2019-05-29T05:43:23.169Z,1017.67
2019-05-29T05:44:12.082Z,1017.73
2019-05-29T05:45:11.073Z,1017.75
2019-05-29T05:46:11.098Z,1017.83
2019-05-29T05:47:11.050Z,1017.79
2019-05-29T05:48:11.053Z,1017.86
2019-05-29T05:49:11.029Z,1017.94
2019-05-29T05:50:11.020Z,1017.97
2019-05-29T05:51:11.013Z,1018.08
2019-05-29T05:52:10.998Z,1018.18
2019-05-29T05:53:10.987Z,1018.18
2019-05-29T05:54:10.989Z,1018.10
2019-05-29T05:55:10.967Z,1018.06
2019-05-29T05:56:10.956Z,1017.95
2019-05-29T05:57:10.945Z,1017.97
2019-05-29T05:58:10.934Z,1017.96
2019-05-29T05:59:10.924Z,1018.00
2019-05-29T06:00:10.933Z,1018.01
2019-05-29T06:01:10.901Z,1018.00
2019-05-29T06:02:10.890Z,1017.99
2019-05-29T06:03:10.879Z,1018.05
2019-05-29T06:04:10.869Z,1018.04
2019-05-29T06:05:10.858Z,1018.02
2019-05-29T06:06:10.865Z,1018.03
2019-05-29T06:07:10.838Z,1018.08
2019-05-29T06:08:10.837Z,1018.05
2019-05-29T06:09:10.817Z,1018.06
2019-05-29T06:10:10.806Z,1018.09
2019-05-29T06:11:10.793Z,1018.12
2019-05-29T06:12:10.813Z,1018.19
2019-05-29T06:13:10.771Z,1018.28
2019-05-29T06:14:10.763Z,1018.29
2019-05-29T06:15:10.751Z,1018.39
2019-05-29T06:16:10.744Z,1018.39
2019-05-29T06:17:10.755Z,1018.42
2019-05-29T06:18:21.033Z,1018.52
2019-05-29T06:19:11.708Z,1018.55
2019-05-29T06:20:10.698Z,1018.51
2019-05-29T06:21:10.701Z,1018.48
2019-05-29T06:22:10.676Z,1018.68
2019-05-29T06:23:10.669Z,1018.66
2019-05-29T06:24:10.668Z,1018.57
2019-05-29T06:25:10.727Z,1018.62
2019-05-29T06:26:10.635Z,1018.71
2019-05-29T06:27:10.625Z,1018.83
2019-05-29T06:28:10.616Z,1018.77
2019-05-29T06:29:10.608Z,1018.67
2019-05-29T06:30:10.602Z,1018.68
2019-05-29T06:31:10.580Z,1018.77
2019-05-29T06:32:10.583Z,1018.76
2019-05-29T06:33:10.560Z,1018.70
2019-05-29T06:34:10.548Z,1018.71
2019-05-29T06:35:10.536Z,1018.76
2019-05-29T06:36:10.547Z,1018.75
2019-05-29T06:37:10.515Z,1018.74
2019-05-29T06:38:10.505Z,1018.69
2019-05-29T06:39:10.499Z,1018.75
2019-05-29T06:40:10.485Z,1018.73
2019-05-29T06:41:10.476Z,1018.62
2019-05-29T06:42:10.472Z,1018.64
2019-05-29T06:43:11.973Z,1018.60
2019-05-29T06:44:10.441Z,1018.67
2019-05-29T06:45:10.444Z,1018.65
2019-05-29T06:46:10.418Z,1018.66
2019-05-29T06:47:10.414Z,1018.63
2019-05-29T06:48:10.412Z,1018.64
2019-05-29T06:49:10.398Z,1018.66
2019-05-29T06:50:10.376Z,1018.64
2019-05-29T06:51:10.368Z,1018.66
2019-05-29T06:52:10.355Z,1018.65
2019-05-29T06:53:10.344Z,1018.69
2019-05-29T06:54:10.342Z,1018.69
2019-05-29T06:55:10.324Z,1018.69
2019-05-29T06:56:10.328Z,1018.64
2019-05-29T06:57:10.301Z,1018.65
2019-05-29T06:58:10.289Z,1018.62
2019-05-29T06:59:10.288Z,1018.71
2019-05-29T07:00:10.280Z,1018.68
2019-05-29T07:01:10.257Z,1018.69
2019-05-29T07:02:10.247Z,1018.66
2019-05-29T07:03:10.237Z,1018.64
2019-05-29T07:04:12.264Z,1018.68
2019-05-29T07:05:10.214Z,1018.69
2019-05-29T07:06:10.230Z,1018.69
2019-05-29T07:07:10.193Z,1018.70
2019-05-29T07:08:18.927Z,1018.73
2019-05-29T07:09:11.171Z,1018.70
2019-05-29T07:10:10.163Z,1018.72
2019-05-29T07:11:10.152Z,1018.64
2019-05-29T07:12:10.155Z,1018.67
2019-05-29T07:13:10.129Z,1018.66
2019-05-29T07:14:10.126Z,1018.69
2019-05-29T07:15:10.107Z,1018.72
2019-05-29T07:16:10.097Z,1018.78
2019-05-29T07:17:10.104Z,1018.78
2019-05-29T07:18:10.090Z,1018.75
2019-05-29T07:19:24.786Z,1018.83
2019-05-29T07:20:11.052Z,1018.80
2019-05-29T07:21:10.043Z,1018.79
2019-05-29T07:22:10.033Z,1018.81
2019-05-29T07:23:10.023Z,1018.86
2019-05-29T07:24:10.024Z,1018.85
2019-05-29T07:25:10.007Z,1018.86
2019-05-29T07:26:09.990Z,1018.82
2019-05-29T07:27:13.374Z,1018.86
2019-05-29T07:28:09.971Z,1018.81
2019-05-29T07:29:09.958Z,1018.87
2019-05-29T07:30:09.969Z,1018.84
2019-05-29T07:31:09.936Z,1018.89
2019-05-29T07:32:09.925Z,1018.85
2019-05-29T07:33:09.915Z,1018.86
2019-05-29T07:34:09.904Z,1018.86
2019-05-29T07:35:09.895Z,1018.89
2019-05-29T07:36:09.893Z,1018.92
2019-05-29T07:37:09.879Z,1018.96
2019-05-29T07:38:09.866Z,1018.95
2019-05-29T07:39:09.860Z,1018.98
2019-05-29T07:40:09.841Z,1018.97
2019-05-29T07:41:09.830Z,1018.99
2019-05-29T07:42:09.827Z,1018.91
2019-05-29T07:43:09.807Z,1018.98
2019-05-29T07:44:09.800Z,1019.01
2019-05-29T07:45:09.786Z,1019.04
2019-05-29T07:46:09.776Z,1019.02
2019-05-29T07:47:10.093Z,1018.99
2019-05-29T07:48:09.765Z,1019.03
2019-05-29T07:49:09.745Z,1018.97
2019-05-29T07:50:09.733Z,1018.95
2019-05-29T07:51:09.725Z,1018.98
2019-05-29T07:52:09.711Z,1018.97
2019-05-29T07:53:09.701Z,1018.98
2019-05-29T07:54:09.710Z,1019.00
2019-05-29T07:55:09.947Z,1019.03
2019-05-29T07:56:22.259Z,1019.09
2019-05-29T07:57:10.658Z,1019.08
2019-05-29T07:58:09.648Z,1019.06
2019-05-29T07:59:09.638Z,1019.03
2019-05-29T08:00:09.639Z,1019.06
2019-05-29T08:01:13.725Z,1019.07
2019-05-29T08:02:09.604Z,1019.04
2019-05-29T08:03:09.597Z,1019.03
2019-05-29T08:04:09.588Z,1019.02
2019-05-29T08:05:09.573Z,1019.00
2019-05-29T08:06:09.573Z,1019.02
2019-05-29T08:07:09.551Z,1019.01
2019-05-29T08:08:09.541Z,1018.99
2019-05-29T08:09:09.529Z,1019.03
2019-05-29T08:10:09.521Z,1018.97
2019-05-29T08:11:09.508Z,1018.93
2019-05-29T08:12:09.507Z,1018.96
2019-05-29T08:13:09.486Z,1018.99
2019-05-29T08:14:09.476Z,1019.04
2019-05-29T08:15:09.469Z,1018.96
2019-05-29T08:16:09.454Z,1018.93
2019-05-29T08:17:09.444Z,1018.90
2019-05-29T08:18:09.444Z,1018.90
2019-05-29T08:19:09.432Z,1018.91
2019-05-29T08:20:09.418Z,1018.85
2019-05-29T08:21:09.402Z,1018.90
2019-05-29T08:22:09.393Z,1018.81
2019-05-29T08:23:09.383Z,1018.83
2019-05-29T08:24:09.381Z,1018.81
2019-05-29T08:25:09.360Z,1018.84
2019-05-29T08:26:09.354Z,1018.79
2019-05-29T08:27:09.342Z,1018.83
2019-05-29T08:28:09.330Z,1018.80
2019-05-29T08:29:09.320Z,1018.84
2019-05-29T08:30:09.317Z,1018.83
2019-05-29T08:31:09.298Z,1018.87
2019-05-29T08:32:09.287Z,1018.82
2019-05-29T08:33:09.275Z,1018.87
2019-05-29T08:34:09.266Z,1018.82
2019-05-29T08:35:09.274Z,1018.83
2019-05-29T08:36:09.257Z,1018.81
2019-05-29T08:37:09.232Z,1018.90
2019-05-29T08:38:09.224Z,1018.90
2019-05-29T08:39:09.211Z,1018.84
2019-05-29T08:40:09.201Z,1018.88
2019-05-29T08:41:09.192Z,1018.84
2019-05-29T08:42:22.515Z,1018.84
2019-05-29T08:43:10.171Z,1018.85
2019-05-29T08:44:09.160Z,1018.87
2019-05-29T08:45:09.152Z,1018.82
2019-05-29T08:46:09.137Z,1018.86
2019-05-29T08:47:10.845Z,1018.81
2019-05-29T08:48:09.127Z,1018.82
2019-05-29T08:49:09.107Z,1018.80
2019-05-29T08:50:18.090Z,1018.76
2019-05-29T08:51:10.084Z,1018.83
2019-05-29T08:52:12.176Z,1018.80
2019-05-29T08:53:09.064Z,1018.80
2019-05-29T08:54:23.474Z,1018.83
2019-05-29T08:55:10.041Z,1018.78
2019-05-29T08:56:09.032Z,1018.80
2019-05-29T08:57:09.027Z,1018.83
2019-05-29T08:58:09.012Z,1018.78
2019-05-29T08:59:09.007Z,1018.79
2019-05-29T09:00:09.008Z,1018.77
2019-05-29T09:01:08.977Z,1018.80
2019-05-29T09:02:08.982Z,1018.79
2019-05-29T09:03:08.960Z,1018.84
2019-05-29T09:04:08.947Z,1018.78
2019-05-29T09:05:08.935Z,1018.80
2019-05-29T09:06:11.470Z,1018.75
2019-05-29T09:07:08.914Z,1018.79
2019-05-29T09:08:08.904Z,1018.81
2019-05-29T09:09:08.893Z,1018.88
2019-05-29T09:10:08.882Z,1018.83
2019-05-29T09:11:08.880Z,1018.83
2019-05-29T09:12:08.875Z,1018.83
2019-05-29T09:13:08.850Z,1018.77
2019-05-29T09:14:08.842Z,1018.83
2019-05-29T09:15:09.489Z,1018.82
2019-05-29T09:16:08.819Z,1018.86
2019-05-29T09:17:08.807Z,1018.83
2019-05-29T09:18:08.810Z,1018.82
2019-05-29T09:19:08.787Z,1018.82
2019-05-29T09:20:25.416Z,1018.87
2019-05-29T09:21:09.770Z,1018.81
2019-05-29T09:22:08.754Z,1018.83
2019-05-29T09:23:08.743Z,1018.82
2019-05-29T09:24:08.744Z,1018.83
2019-05-29T09:25:08.722Z,1018.82
2019-05-29T09:26:15.753Z,1018.85
2019-05-29T09:27:09.700Z,1018.82
2019-05-29T09:28:08.699Z,1018.80
2019-05-29T09:29:08.680Z,1018.79
2019-05-29T09:30:08.681Z,1018.83
2019-05-29T09:31:08.679Z,1018.82
2019-05-29T09:32:08.648Z,1018.85
2019-05-29T09:33:08.639Z,1018.86
2019-05-29T09:34:08.627Z,1018.87
2019-05-29T09:35:08.617Z,1018.86
2019-05-29T09:36:08.617Z,1018.85
2019-05-29T09:37:08.595Z,1018.91
2019-05-29T09:38:08.584Z,1018.87
2019-05-29T09:39:08.574Z,1018.86
2019-05-29T09:40:08.563Z,1018.84
2019-05-29T09:41:08.554Z,1018.90
2019-05-29T09:42:08.552Z,1018.85
2019-05-29T09:43:08.532Z,1018.87
2019-05-29T09:44:08.521Z,1018.87
2019-05-29T09:45:08.510Z,1018.83
2019-05-29T09:46:08.503Z,1018.85
2019-05-29T09:47:08.489Z,1018.84
2019-05-29T09:48:08.509Z,1018.85
2019-05-29T09:49:08.467Z,1018.88
2019-05-29T09:50:08.457Z,1018.90
2019-05-29T09:52:09.433Z,1018.86
2019-05-29T09:53:08.425Z,1018.86
2019-05-29T09:53:44.985Z,1018.90
2019-05-29T09:54:08.491Z,1018.87
2019-05-29T09:55:08.402Z,1018.86
2019-05-29T09:56:08.399Z,1018.88
2019-05-29T09:57:08.384Z,1018.89
2019-05-29T09:58:08.371Z,1018.85
2019-05-29T09:59:08.362Z,1018.87
2019-05-29T10:00:08.361Z,1018.85
2019-05-29T10:01:21.848Z,1018.90
2019-05-29T10:02:09.536Z,1018.90
2019-05-29T10:03:08.319Z,1018.90
2019-05-29T10:04:08.310Z,1018.96
2019-05-29T10:05:08.298Z,1018.98
2019-05-29T10:06:09.516Z,1019.00
2019-05-29T10:07:08.277Z,1019.01
2019-05-29T10:08:08.265Z,1019.02
2019-05-29T10:09:08.254Z,1019.01
2019-05-29T10:10:08.244Z,1019.02
2019-05-29T10:11:10.666Z,1018.96
2019-05-29T10:12:08.235Z,1018.98
2019-05-29T10:13:08.212Z,1018.99
2019-05-29T10:14:08.205Z,1019.01
2019-05-29T10:15:08.191Z,1019.00
2019-05-29T10:16:08.181Z,1019.06
2019-05-29T10:17:12.565Z,1018.98
2019-05-29T10:18:28.222Z,1019.01
2019-05-29T10:19:09.148Z,1018.98
2019-05-29T10:20:08.141Z,1019.01
2019-05-29T10:21:08.135Z,1018.98
2019-05-29T10:22:08.117Z,1019.02
2019-05-29T10:23:08.107Z,1018.96
2019-05-29T10:24:08.108Z,1018.98
2019-05-29T10:25:08.088Z,1019.03
2019-05-29T10:26:08.076Z,1019.00
2019-05-29T10:27:08.065Z,1019.14
2019-05-29T10:28:08.176Z,1019.23
2019-05-29T10:29:09.510Z,1019.27
2019-05-29T10:30:08.043Z,1019.34
2019-05-29T10:31:08.022Z,1019.37
2019-05-29T10:32:08.014Z,1019.34
2019-05-29T10:33:08.001Z,1019.36
2019-05-29T10:34:08.007Z,1019.42
2019-05-29T10:35:07.979Z,1019.44
2019-05-29T10:36:07.984Z,1019.41
2019-05-29T10:37:07.971Z,1019.43
2019-05-29T10:38:07.952Z,1019.44
2019-05-29T10:39:07.936Z,1019.41
2019-05-29T10:40:07.927Z,1019.43
2019-05-29T10:41:07.914Z,1019.43
2019-05-29T10:42:07.914Z,1019.45
2019-05-29T10:43:07.897Z,1019.43
2019-05-29T10:44:07.884Z,1019.38
2019-05-29T10:45:07.872Z,1019.35
2019-05-29T10:46:07.882Z,1019.32
2019-05-29T10:47:07.853Z,1019.14
2019-05-29T10:48:07.863Z,1018.88
2019-05-29T10:49:07.831Z,1018.84
2019-05-29T10:50:07.923Z,1018.86
2019-05-29T10:51:07.812Z,1018.87
2019-05-29T10:52:15.513Z,1018.90
2019-05-29T10:53:08.799Z,1018.87
2019-05-29T10:54:07.779Z,1018.81
2019-05-29T10:55:07.766Z,1018.79
2019-05-29T10:56:07.758Z,1018.75
2019-05-29T10:57:07.752Z,1018.72
2019-05-29T10:58:07.738Z,1018.76
2019-05-29T10:59:07.745Z,1018.77
2019-05-29T11:00:07.712Z,1018.73
2019-05-29T11:01:07.700Z,1018.73
2019-05-29T11:02:07.692Z,1018.69
2019-05-29T11:03:07.680Z,1018.70
2019-05-29T11:04:07.677Z,1018.69
2019-05-29T11:05:07.670Z,1018.73
2019-05-29T11:06:07.647Z,1018.68
2019-05-29T11:07:07.637Z,1018.71
2019-05-29T11:08:07.625Z,1018.68
2019-05-29T11:09:07.615Z,1018.67
2019-05-29T11:10:07.606Z,1018.66
2019-05-29T11:11:07.616Z,1018.67
2019-05-29T11:12:07.582Z,1018.69
2019-05-29T11:13:07.571Z,1018.66
2019-05-29T11:14:07.560Z,1018.65
2019-05-29T11:15:20.853Z,1018.65
2019-05-29T11:16:08.548Z,1018.67
2019-05-29T11:17:07.536Z,1018.67
2019-05-29T11:18:07.521Z,1018.64
2019-05-29T11:19:07.509Z,1018.70
2019-05-29T11:20:07.495Z,1018.67
2019-05-29T11:21:07.484Z,1018.66
2019-05-29T11:22:25.233Z,1018.62
2019-05-29T11:23:08.463Z,1018.63
2019-05-29T11:24:07.453Z,1018.64
2019-05-29T11:25:21.761Z,1018.64
2019-05-29T11:26:08.428Z,1018.60
2019-05-29T11:27:07.419Z,1018.58
2019-05-29T11:28:07.420Z,1018.57
2019-05-29T11:29:07.396Z,1018.60
2019-05-29T11:30:07.386Z,1018.58
2019-05-29T11:31:07.374Z,1018.60
2019-05-29T11:32:07.363Z,1018.61
2019-05-29T11:33:07.352Z,1018.58
2019-05-29T11:34:07.356Z,1018.57
2019-05-29T11:35:07.336Z,1018.55
2019-05-29T11:36:12.934Z,1018.57
2019-05-29T11:37:08.308Z,1018.59
2019-05-29T11:38:07.303Z,1018.55
2019-05-29T11:39:07.286Z,1018.57
2019-05-29T11:40:07.287Z,1018.60
2019-05-29T11:41:24.986Z,1018.58
2019-05-29T11:42:08.251Z,1018.56
2019-05-29T11:43:07.243Z,1018.56
2019-05-29T11:44:07.245Z,1018.57
2019-05-29T11:45:07.223Z,1018.51
2019-05-29T11:46:07.226Z,1018.56
2019-05-29T11:47:07.197Z,1018.53
2019-05-29T11:48:07.203Z,1018.58
2019-05-29T11:49:07.175Z,1018.58
2019-05-29T11:50:18.780Z,1018.54
2019-05-29T11:51:08.164Z,1018.53
2019-05-29T11:52:23.247Z,1018.58
2019-05-29T11:53:08.145Z,1018.52
2019-05-29T11:54:07.122Z,1018.50
2019-05-29T11:55:08.120Z,1018.53
2019-05-29T11:56:07.105Z,1018.55
2019-05-29T11:57:07.103Z,1018.55
2019-05-29T11:58:07.079Z,1018.55
2019-05-29T11:59:07.073Z,1018.53
2019-05-29T12:00:17.751Z,1018.45
2019-05-29T12:01:08.045Z,1018.56
2019-05-29T12:02:07.036Z,1018.48
2019-05-29T12:03:07.035Z,1018.49
2019-05-29T12:04:23.121Z,1018.59
2019-05-29T12:05:08.009Z,1018.50